createdAt,value
2018-02-21T00:00:07.030Z,25.70
2018-02-21T00:02:37.406Z,25.70
2018-02-21T00:05:09.338Z,25.70
2018-02-21T00:07:40.554Z,25.70
2018-02-21T00:10:10.931Z,25.70
2018-02-21T00:12:41.274Z,25.70
2018-02-21T00:15:11.685Z,25.70
2018-02-21T00:17:42.023Z,25.70
2018-02-21T00:20:12.469Z,25.80
2018-02-21T00:22:42.861Z,25.80
2018-02-21T00:25:15.068Z,25.90
2018-02-21T00:27:45.517Z,25.80
2018-02-21T00:30:17.069Z,25.90
2018-02-21T00:32:47.464Z,25.90
2018-02-21T00:35:17.859Z,25.90
2018-02-21T00:37:48.252Z,26.00
2018-02-21T00:40:19.390Z,26.10
2018-02-21T00:42:50.776Z,26.10
2018-02-21T00:45:21.181Z,26.10
2018-02-21T00:47:52.380Z,26.30
2018-02-21T00:50:22.806Z,26.30
2018-02-21T00:52:53.284Z,26.30
2018-02-21T00:55:25.585Z,26.40
2018-02-21T00:57:56.014Z,26.40
2018-02-21T01:00:26.826Z,26.40
2018-02-21T01:02:57.278Z,26.50
2018-02-21T01:05:28.919Z,26.50
2018-02-21T01:07:59.424Z,26.60
2018-02-21T01:10:30.562Z,26.70
2018-02-21T01:13:02.202Z,26.70
2018-02-21T01:15:32.645Z,26.70
2018-02-21T01:18:04.495Z,26.80
2018-02-21T01:20:35.708Z,26.90
2018-02-21T01:23:06.178Z,26.90
2018-02-21T01:25:38.614Z,27.10
2018-02-21T01:28:09.078Z,27.00
2018-02-21T01:30:42.057Z,27.20
2018-02-21T01:33:13.235Z,27.30
2018-02-21T01:35:43.587Z,27.20
2018-02-21T01:38:13.992Z,27.30
2018-02-21T01:40:45.414Z,27.40
2018-02-21T01:43:17.142Z,27.50
2018-02-21T01:45:47.542Z,27.60
2018-02-21T01:48:18.095Z,27.70
2018-02-21T01:50:54.852Z,27.80
2018-02-21T01:53:25.165Z,27.90
2018-02-21T01:55:55.944Z,27.90
2018-02-21T01:58:27.134Z,28.00
2018-02-21T02:00:58.497Z,28.00
2018-02-21T02:03:28.906Z,28.00
2018-02-21T02:05:59.937Z,28.10
2018-02-21T02:08:30.307Z,28.20
2018-02-21T02:11:01.589Z,28.30
2018-02-21T02:13:32.343Z,28.30
2018-02-21T02:16:02.837Z,28.40
2018-02-21T02:18:34.395Z,28.50
2018-02-21T02:21:05.609Z,28.50
2018-02-21T02:23:36.124Z,28.50
2018-02-21T02:26:08.024Z,28.60
2018-02-21T02:28:39.240Z,28.70
2018-02-21T02:31:10.755Z,28.70
2018-02-21T02:33:41.163Z,28.80
2018-02-21T02:36:11.607Z,28.80
2018-02-21T02:38:49.090Z,28.90
2018-02-21T02:41:19.446Z,28.90
2018-02-21T02:43:50.063Z,29.00
2018-02-21T02:46:20.498Z,29.00
2018-02-21T02:48:50.946Z,29.00
2018-02-21T02:51:21.373Z,29.00
2018-02-21T02:53:51.846Z,29.00
2018-02-21T02:56:23.710Z,29.10
2018-02-21T02:58:54.141Z,29.00
2018-02-21T03:01:24.768Z,29.10
2018-02-21T03:03:55.233Z,29.20
2018-02-21T03:06:25.667Z,29.30
2018-02-21T03:08:56.094Z,29.30
2018-02-21T03:11:26.507Z,29.40
2018-02-21T03:13:57.502Z,29.50
2018-02-21T03:16:28.689Z,29.50
2018-02-21T03:19:00.772Z,29.10
2018-02-21T03:21:31.214Z,29.40
2018-02-21T03:24:01.605Z,29.40
2018-02-21T03:26:32.045Z,29.50
2018-02-21T03:29:02.834Z,29.60
2018-02-21T03:31:34.210Z,29.60
2018-02-21T03:34:04.627Z,29.70
2018-02-21T03:36:35.021Z,29.80
2018-02-21T03:39:06.497Z,29.90
2018-02-21T03:41:37.521Z,29.90
2018-02-21T03:44:10.035Z,30.10
2018-02-21T03:46:40.425Z,30.10
2018-02-21T03:49:11.746Z,30.30
2018-02-21T03:51:42.222Z,30.30
2018-02-21T03:54:12.610Z,30.30
2018-02-21T03:56:44.373Z,30.40
2018-02-21T03:59:15.558Z,30.50
2018-02-21T04:01:46.674Z,30.50
2018-02-21T04:04:17.027Z,30.60
2018-02-21T04:06:47.475Z,30.60
2018-02-21T04:09:17.866Z,30.70
2018-02-21T04:11:48.451Z,30.80
2018-02-21T04:14:19.825Z,30.80
2018-02-21T04:16:50.963Z,30.90
2018-02-21T04:19:22.485Z,31.00
2018-02-21T04:21:52.844Z,31.00
2018-02-21T04:24:24.039Z,31.10
2018-02-21T04:26:54.419Z,31.10
2018-02-21T04:29:24.834Z,31.20
2018-02-21T04:31:56.460Z,31.30
2018-02-21T04:34:26.953Z,31.30
2018-02-21T04:36:57.389Z,31.30
2018-02-21T04:39:28.138Z,31.40
2018-02-21T04:41:58.696Z,31.50
2018-02-21T04:44:29.832Z,31.40
2018-02-21T04:47:00.209Z,31.40
2018-02-21T04:49:31.001Z,31.40
2018-02-21T04:52:02.200Z,31.50
2018-02-21T04:54:36.575Z,31.50
2018-02-21T04:57:12.777Z,31.60
2018-02-21T04:59:57.740Z,31.60
2018-02-21T05:02:29.401Z,31.70
2018-02-21T05:04:59.870Z,31.80
2018-02-21T05:07:31.053Z,32.00
2018-02-21T05:10:02.666Z,31.90
2018-02-21T05:12:33.386Z,32.00
2018-02-21T05:15:04.113Z,32.10
2018-02-21T05:17:34.486Z,32.20
2018-02-21T05:20:07.918Z,32.30
2018-02-21T05:22:38.293Z,32.30
2018-02-21T05:25:10.267Z,32.10
2018-02-21T05:27:41.442Z,32.00
2018-02-21T05:30:11.850Z,32.00
2018-02-21T05:32:42.666Z,32.10
2018-02-21T05:35:13.802Z,32.10
2018-02-21T05:37:45.285Z,32.00
2018-02-21T05:40:15.680Z,32.00
2018-02-21T05:42:47.128Z,32.20
2018-02-21T05:45:19.297Z,32.40
2018-02-21T05:47:50.520Z,32.60
2018-02-21T05:50:21.006Z,32.60
2018-02-21T05:52:51.445Z,32.80
2018-02-21T05:55:21.822Z,32.70
2018-02-21T05:57:52.999Z,32.40
2018-02-21T06:00:23.408Z,32.40
2018-02-21T06:02:54.994Z,32.10
2018-02-21T06:05:25.375Z,32.10
2018-02-21T06:07:56.607Z,32.10
2018-02-21T06:10:27.810Z,32.00
2018-02-21T06:12:58.788Z,32.00
2018-02-21T06:15:29.446Z,31.90
2018-02-21T06:18:00.646Z,31.70
2018-02-21T06:20:31.412Z,31.70
2018-02-21T06:23:02.530Z,31.70
2018-02-21T06:25:33.001Z,31.70
2018-02-21T06:28:03.403Z,31.60
2018-02-21T06:30:34.614Z,31.40
2018-02-21T06:33:05.363Z,31.40
2018-02-21T06:35:35.715Z,31.40
2018-02-21T06:38:06.871Z,31.40
2018-02-21T06:40:38.538Z,31.40
2018-02-21T06:43:09.707Z,31.60
2018-02-21T06:45:40.083Z,31.50
2018-02-21T06:48:11.353Z,31.70
2018-02-21T06:50:41.879Z,31.70
2018-02-21T06:53:12.302Z,31.80
2018-02-21T06:55:42.712Z,31.90
2018-02-21T06:58:14.907Z,32.20
2018-02-21T07:00:45.349Z,32.20
2018-02-21T07:03:16.220Z,32.40
2018-02-21T07:05:46.897Z,32.50
2018-02-21T07:08:17.448Z,32.60
2018-02-21T07:10:47.853Z,32.60
2018-02-21T07:13:18.290Z,32.70
2018-02-21T07:15:48.697Z,32.80
2018-02-21T07:18:19.067Z,32.90
2018-02-21T07:20:49.723Z,32.90
2018-02-21T07:23:20.091Z,32.80
2018-02-21T07:25:50.691Z,32.70
2018-02-21T07:28:22.939Z,32.60
2018-02-21T07:30:53.417Z,32.50
2018-02-21T07:33:24.069Z,32.40
2018-02-21T07:35:54.529Z,32.30
2018-02-21T07:38:25.355Z,32.20
2018-02-21T07:40:55.734Z,32.10
2018-02-21T07:43:26.178Z,32.00
2018-02-21T07:45:56.589Z,31.90
2018-02-21T07:48:27.014Z,31.80
2018-02-21T07:50:58.391Z,31.70
2018-02-21T07:53:28.860Z,31.70
2018-02-21T07:56:00.164Z,31.60
2018-02-21T07:58:30.573Z,31.50
2018-02-21T08:01:01.028Z,31.50
2018-02-21T08:03:31.475Z,31.40
2018-02-21T08:06:01.897Z,31.40
2018-02-21T08:08:32.789Z,31.30
2018-02-21T08:11:03.302Z,31.30
2018-02-21T08:13:33.689Z,31.30
2018-02-21T08:16:04.122Z,31.40
2018-02-21T08:18:34.574Z,31.40
2018-02-21T08:21:06.954Z,31.60
2018-02-21T08:23:37.417Z,31.60
2018-02-21T08:26:08.140Z,31.60
2018-02-21T08:28:38.507Z,31.70
2018-02-21T08:31:08.925Z,31.80
2018-02-21T08:33:39.992Z,31.90
2018-02-21T08:36:11.241Z,32.10
2018-02-21T08:38:42.878Z,32.30
2018-02-21T08:41:13.270Z,32.20
2018-02-21T08:43:43.715Z,32.40
2018-02-21T08:46:14.154Z,32.30
2018-02-21T08:48:44.558Z,32.30
2018-02-21T08:51:15.260Z,32.20
2018-02-21T08:53:46.024Z,32.30
2018-02-21T08:56:16.839Z,32.30
2018-02-21T08:58:47.278Z,32.30
2018-02-21T09:01:17.677Z,32.30
2018-02-21T09:03:48.102Z,32.20
2018-02-21T09:06:18.514Z,32.10
2018-02-21T09:08:50.063Z,32.00
2018-02-21T09:11:21.225Z,31.90
2018-02-21T09:13:51.774Z,31.90
2018-02-21T09:16:22.202Z,31.80
2018-02-21T09:18:52.635Z,31.80
2018-02-21T09:21:23.108Z,31.70
2018-02-21T09:23:54.335Z,31.70
2018-02-21T09:26:25.189Z,31.70
2018-02-21T09:28:56.347Z,31.60
2018-02-21T09:31:26.839Z,31.60
2018-02-21T09:33:58.270Z,31.60
2018-02-21T09:36:28.691Z,31.50
2018-02-21T09:38:59.272Z,31.40
2018-02-21T09:41:30.552Z,31.50
2018-02-21T09:44:01.513Z,31.50
2018-02-21T09:46:32.002Z,31.40
2018-02-21T09:49:02.767Z,31.40
2018-02-21T09:51:33.286Z,31.40
2018-02-21T09:54:03.796Z,31.50
2018-02-21T09:56:34.785Z,31.40
2018-02-21T09:59:05.178Z,31.40
2018-02-21T10:01:35.638Z,31.30
2018-02-21T10:04:05.994Z,31.40
2018-02-21T10:06:37.235Z,31.40
2018-02-21T10:09:08.988Z,31.30
2018-02-21T10:11:40.198Z,31.30
2018-02-21T10:14:10.981Z,31.30
2018-02-21T10:16:42.114Z,31.30
2018-02-21T10:19:13.223Z,31.30
2018-02-21T10:21:43.691Z,31.30
2018-02-21T10:24:14.843Z,31.30
2018-02-21T10:26:46.125Z,31.30
2018-02-21T10:29:16.598Z,31.30
2018-02-21T10:31:49.897Z,31.30
2018-02-21T10:34:21.065Z,31.20
2018-02-21T10:36:51.481Z,31.20
2018-02-21T10:39:21.866Z,31.20
2018-02-21T10:41:52.314Z,31.20
2018-02-21T10:44:24.488Z,31.20
2018-02-21T10:46:55.646Z,31.20
2018-02-21T10:49:26.104Z,31.10
2018-02-21T10:51:57.231Z,31.10
2018-02-21T10:54:27.633Z,31.10
2018-02-21T10:56:59.972Z,31.10
2018-02-21T10:59:30.452Z,31.10
2018-02-21T11:02:01.121Z,31.10
2018-02-21T11:04:31.523Z,31.00
2018-02-21T11:07:02.661Z,30.90
2018-02-21T11:09:33.009Z,30.80
2018-02-21T11:12:03.490Z,30.80
2018-02-21T11:14:34.021Z,30.70
2018-02-21T11:17:04.447Z,30.60
2018-02-21T11:19:35.829Z,30.50
2018-02-21T11:22:06.251Z,30.50
2018-02-21T11:24:36.654Z,30.50
2018-02-21T11:27:07.171Z,30.50
2018-02-21T11:29:38.334Z,30.50
2018-02-21T11:32:09.922Z,30.50
2018-02-21T11:34:40.328Z,30.50
2018-02-21T11:37:10.725Z,30.50
2018-02-21T11:39:41.079Z,30.40
2018-02-21T11:42:11.526Z,30.40
2018-02-21T11:44:42.309Z,30.40
2018-02-21T11:47:13.481Z,30.30
2018-02-21T11:49:43.966Z,30.30
2018-02-21T11:52:16.060Z,30.30
2018-02-21T11:54:46.475Z,30.30
2018-02-21T11:57:17.686Z,30.30
2018-02-21T11:59:48.064Z,30.30
2018-02-21T12:02:18.620Z,30.20
2018-02-21T12:04:49.108Z,30.20
2018-02-21T12:07:19.734Z,30.20
2018-02-21T12:09:50.129Z,30.20
2018-02-21T12:12:20.526Z,30.10
2018-02-21T12:14:53.847Z,30.10
2018-02-21T12:17:24.248Z,30.10
2018-02-21T12:19:55.082Z,30.00
2018-02-21T12:22:25.524Z,30.00
2018-02-21T12:24:55.991Z,30.00
2018-02-21T12:27:27.167Z,29.90
2018-02-21T12:29:57.601Z,29.80
2018-02-21T12:32:31.684Z,29.80
2018-02-21T12:35:02.026Z,29.80
2018-02-21T12:37:32.397Z,29.80
2018-02-21T12:40:02.749Z,29.80
2018-02-21T12:42:33.934Z,29.60
2018-02-21T12:45:04.724Z,29.70
2018-02-21T12:47:35.878Z,29.60
2018-02-21T12:50:06.789Z,29.60
2018-02-21T12:52:37.985Z,29.60
2018-02-21T12:55:08.384Z,29.60
2018-02-21T12:57:38.742Z,29.60
2018-02-21T13:00:09.261Z,29.50
2018-02-21T13:02:40.431Z,29.50
2018-02-21T13:05:10.871Z,29.50
2018-02-21T13:07:41.310Z,29.50
2018-02-21T13:10:12.467Z,29.50
2018-02-21T13:12:43.659Z,29.50
2018-02-21T13:15:15.333Z,29.60
2018-02-21T13:17:46.454Z,29.60
2018-02-21T13:20:17.089Z,29.60
2018-02-21T13:22:47.627Z,29.60
2018-02-21T13:25:18.151Z,29.50
2018-02-21T13:27:48.599Z,29.50
2018-02-21T13:30:19.014Z,29.50
2018-02-21T13:32:49.815Z,29.40
2018-02-21T13:35:20.213Z,29.30
2018-02-21T13:37:52.444Z,29.20
2018-02-21T13:40:22.915Z,29.20
2018-02-21T13:42:54.117Z,29.10
2018-02-21T13:45:24.731Z,29.10
2018-02-21T13:47:56.256Z,29.10
2018-02-21T13:50:28.031Z,29.30
2018-02-21T13:52:58.954Z,29.20
2018-02-21T13:55:29.427Z,29.20
2018-02-21T13:57:59.831Z,29.20
2018-02-21T14:00:31.194Z,29.10
2018-02-21T14:03:02.043Z,29.10
2018-02-21T14:05:32.471Z,29.00
2018-02-21T14:08:03.192Z,28.90
2018-02-21T14:10:34.471Z,28.90
2018-02-21T14:13:05.654Z,28.90
2018-02-21T14:15:36.968Z,28.80
2018-02-21T14:18:08.169Z,28.70
2018-02-21T14:20:40.017Z,28.70
2018-02-21T14:23:10.494Z,28.70
2018-02-21T14:25:41.641Z,28.90
2018-02-21T14:28:13.322Z,28.90
2018-02-21T14:30:43.743Z,28.90
2018-02-21T14:33:15.594Z,29.00
2018-02-21T14:35:46.750Z,29.10
2018-02-21T14:38:17.790Z,29.00
2018-02-21T14:40:48.240Z,29.00
2018-02-21T14:43:18.722Z,29.10
2018-02-21T14:45:49.950Z,29.10
2018-02-21T14:48:20.406Z,29.10
2018-02-21T14:50:52.892Z,29.20
2018-02-21T14:53:23.314Z,29.20
2018-02-21T14:55:55.642Z,29.10
2018-02-21T14:58:27.254Z,29.10
2018-02-21T15:00:58.689Z,29.20
2018-02-21T15:03:29.434Z,29.20
2018-02-21T15:05:59.856Z,29.20
2018-02-21T15:08:33.275Z,29.10
2018-02-21T15:11:03.790Z,29.20
2018-02-21T15:13:34.254Z,29.10
2018-02-21T15:16:05.001Z,29.10
2018-02-21T15:18:35.431Z,29.10
2018-02-21T15:21:06.196Z,29.10
2018-02-21T15:23:38.119Z,29.10
2018-02-21T15:26:08.514Z,29.00
2018-02-21T15:28:39.268Z,29.10
2018-02-21T15:31:09.717Z,29.00
2018-02-21T15:33:40.140Z,29.10
2018-02-21T15:36:10.579Z,28.30
2018-02-21T15:38:42.144Z,29.10
2018-02-21T15:41:12.665Z,29.10
2018-02-21T15:43:43.918Z,29.10
2018-02-21T15:46:15.182Z,29.10
2018-02-21T15:48:45.678Z,29.00
2018-02-21T15:51:17.198Z,29.10
2018-02-21T15:53:48.243Z,29.00
2018-02-21T15:56:18.766Z,29.00
2018-02-21T15:58:49.247Z,29.00
2018-02-21T16:01:19.719Z,29.00
2018-02-21T16:03:50.170Z,29.00
2018-02-21T16:06:20.617Z,29.00
2018-02-21T16:08:51.824Z,29.00
2018-02-21T16:11:22.265Z,29.00
2018-02-21T16:13:52.619Z,29.00
2018-02-21T16:16:23.834Z,29.00
2018-02-21T16:18:55.491Z,29.00
2018-02-21T16:21:26.438Z,29.00
2018-02-21T16:23:56.843Z,29.00
2018-02-21T16:26:28.714Z,29.00
2018-02-21T16:28:59.111Z,29.00
2018-02-21T16:31:29.543Z,29.00
2018-02-21T16:34:00.137Z,28.90
2018-02-21T16:36:31.482Z,29.00
2018-02-21T16:39:03.524Z,29.00
2018-02-21T16:41:35.836Z,28.90
2018-02-21T16:44:06.233Z,28.90
2018-02-21T16:46:36.760Z,28.80
2018-02-21T16:49:07.942Z,28.80
2018-02-21T16:51:38.835Z,28.80
2018-02-21T16:54:15.163Z,28.80
2018-02-21T16:56:45.757Z,28.80
2018-02-21T16:59:16.173Z,28.80
2018-02-21T17:01:46.650Z,28.80
2018-02-21T17:04:17.118Z,28.70
2018-02-21T17:06:48.262Z,28.70
2018-02-21T17:09:19.705Z,28.70
2018-02-21T17:11:50.854Z,28.70
2018-02-21T17:14:22.072Z,28.70
2018-02-21T17:16:52.534Z,28.70
2018-02-21T17:19:23.093Z,28.60
2018-02-21T17:21:53.893Z,28.60
2018-02-21T17:24:25.019Z,28.60
2018-02-21T17:26:56.481Z,28.50
2018-02-21T17:29:27.680Z,28.50
2018-02-21T17:31:58.045Z,28.50
2018-02-21T17:34:29.276Z,28.40
2018-02-21T17:36:59.723Z,28.40
2018-02-21T17:39:31.403Z,28.40
2018-02-21T17:42:01.822Z,28.40
2018-02-21T17:44:32.961Z,28.40
2018-02-21T17:47:03.431Z,28.40
2018-02-21T17:49:33.798Z,28.40
2018-02-21T17:52:05.146Z,28.40
2018-02-21T17:54:36.342Z,28.30
2018-02-21T17:57:07.853Z,28.30
2018-02-21T17:59:39.643Z,28.30
2018-02-21T18:02:10.484Z,28.20
2018-02-21T18:04:41.786Z,28.30
2018-02-21T18:07:13.058Z,28.20
2018-02-21T18:09:43.865Z,28.20
2018-02-21T18:12:16.349Z,28.20
2018-02-21T18:14:47.518Z,28.20
2018-02-21T18:17:17.969Z,28.10
2018-02-21T18:19:48.398Z,28.20
2018-02-21T18:22:19.012Z,28.10
2018-02-21T18:24:49.401Z,28.10
2018-02-21T18:27:21.039Z,28.10
2018-02-21T18:29:51.469Z,28.10
2018-02-21T18:32:22.733Z,28.10
2018-02-21T18:34:53.946Z,28.10
2018-02-21T18:40:34.260Z,28.10
2018-02-21T18:43:04.714Z,28.00
2018-02-21T18:45:34.453Z,28.00
2018-02-21T18:48:04.189Z,28.00
2018-02-21T18:50:35.176Z,28.00
2018-02-21T18:53:04.915Z,28.00
2018-02-21T18:55:34.618Z,28.00
2018-02-21T18:58:04.303Z,28.10
2018-02-21T19:00:34.006Z,28.10
2018-02-21T19:03:03.743Z,28.10
2018-02-21T19:05:33.522Z,28.10
2018-02-21T19:08:03.178Z,28.10
2018-02-21T19:10:32.837Z,28.10
2018-02-21T19:13:02.496Z,28.10
2018-02-21T19:15:32.227Z,28.10
2018-02-21T19:18:02.663Z,28.10
2018-02-21T19:20:33.083Z,28.10
2018-02-21T19:23:03.609Z,28.10
2018-02-21T19:25:33.923Z,28.00
2018-02-21T19:28:03.650Z,28.10
2018-02-21T19:30:34.047Z,28.00
2018-02-21T19:33:03.739Z,28.00
2018-02-21T19:35:34.431Z,28.00
2018-02-21T19:38:04.255Z,28.00
2018-02-21T19:40:33.917Z,28.00
2018-02-21T19:43:03.598Z,28.00
2018-02-21T19:45:33.275Z,28.00
2018-02-21T19:48:02.993Z,28.00
2018-02-21T19:50:32.663Z,28.10
2018-02-21T19:53:02.344Z,28.10
2018-02-21T19:55:31.994Z,28.10
2018-02-21T19:58:02.518Z,28.10
2018-02-21T20:00:32.208Z,28.10
2018-02-21T20:03:01.883Z,28.00
2018-02-21T20:05:31.639Z,28.00
2018-02-21T20:08:01.338Z,28.00
2018-02-21T20:10:30.991Z,28.00
2018-02-21T20:13:00.713Z,28.00
2018-02-21T20:15:30.407Z,28.00
2018-02-21T20:18:00.456Z,28.00
2018-02-21T20:20:30.137Z,28.00
2018-02-21T20:23:00.194Z,28.00
2018-02-21T20:25:29.930Z,28.00
2018-02-21T20:28:00.473Z,28.10
2018-02-21T20:30:30.887Z,28.00
2018-02-21T20:33:00.581Z,28.00
2018-02-21T20:35:30.211Z,28.00
2018-02-21T20:38:00.985Z,28.00
2018-02-21T20:40:30.649Z,28.00
2018-02-21T20:43:00.329Z,28.00
2018-02-21T20:45:30.046Z,28.00
2018-02-21T20:47:59.740Z,27.90
2018-02-21T20:50:30.090Z,27.90
2018-02-21T20:52:59.798Z,27.90
2018-02-21T20:55:29.502Z,27.90
2018-02-21T20:57:59.198Z,27.90
2018-02-21T21:00:28.966Z,27.90
2018-02-21T21:02:58.714Z,27.90
2018-02-21T21:05:28.564Z,27.90
2018-02-21T21:07:58.252Z,27.90
2018-02-21T21:10:28.791Z,27.90
2018-02-21T21:12:59.217Z,27.80
2018-02-21T21:15:28.951Z,27.80
2018-02-21T21:17:59.418Z,27.70
2018-02-21T21:20:29.165Z,27.70
2018-02-21T21:23:00.147Z,27.80
2018-02-21T21:25:29.820Z,27.80
2018-02-21T21:27:59.483Z,27.80
2018-02-21T21:30:29.160Z,27.80
2018-02-21T21:32:59.568Z,27.80
2018-02-21T21:35:29.282Z,27.80
2018-02-21T21:38:00.615Z,27.80
2018-02-21T21:40:30.361Z,27.80
2018-02-21T21:43:00.136Z,27.80
2018-02-21T21:45:29.806Z,27.70
2018-02-21T21:47:59.465Z,27.70
2018-02-21T21:50:29.152Z,27.60
2018-02-21T21:52:58.910Z,27.60
2018-02-21T21:55:28.686Z,27.60
2018-02-21T21:57:58.664Z,27.60
2018-02-21T22:00:28.390Z,27.60
2018-02-21T22:02:58.716Z,27.60
2018-02-21T22:05:28.418Z,27.50
2018-02-21T22:07:58.085Z,27.50
2018-02-21T22:10:27.778Z,27.50
2018-02-21T22:12:58.246Z,27.50
2018-02-21T22:15:27.884Z,27.50
2018-02-21T22:17:57.621Z,27.50
2018-02-21T22:20:28.130Z,27.50
2018-02-21T22:22:57.903Z,27.50
2018-02-21T22:25:27.563Z,27.50
2018-02-21T22:27:57.303Z,27.50
2018-02-21T22:30:26.965Z,27.50
2018-02-21T22:32:56.638Z,27.50
2018-02-21T22:35:26.277Z,27.50
2018-02-21T22:37:55.949Z,27.50
2018-02-21T22:40:25.641Z,27.50
2018-02-21T22:42:56.183Z,27.40
2018-02-21T22:45:25.936Z,27.40
2018-02-21T22:47:55.610Z,27.40
2018-02-21T22:50:25.335Z,27.40
2018-02-21T22:52:55.055Z,27.30
2018-02-21T22:55:24.782Z,27.30
2018-02-21T22:57:55.315Z,27.30
2018-02-21T23:00:25.210Z,27.30
2018-02-21T23:02:54.908Z,27.40
2018-02-21T23:05:24.575Z,27.40
2018-02-21T23:07:54.257Z,27.40
2018-02-21T23:10:23.937Z,27.40
2018-02-21T23:12:53.614Z,27.30
2018-02-21T23:15:23.269Z,27.30
2018-02-21T23:17:53.025Z,27.30
2018-02-21T23:20:22.682Z,27.30
2018-02-21T23:22:52.377Z,27.30
2018-02-21T23:25:22.119Z,27.30
2018-02-21T23:27:52.032Z,27.30
2018-02-21T23:30:21.729Z,27.30
2018-02-21T23:32:51.494Z,27.30
2018-02-21T23:35:21.160Z,27.30
2018-02-21T23:37:51.197Z,27.30
2018-02-21T23:40:22.044Z,27.30
2018-02-21T23:42:52.560Z,27.30
2018-02-21T23:45:22.994Z,27.30
2018-02-21T23:47:53.445Z,27.30
2018-02-21T23:50:24.026Z,27.20
2018-02-21T23:52:53.752Z,27.30
2018-02-21T23:55:24.401Z,27.30
2018-02-21T23:57:54.416Z,27.30
